Time;durP1;ratioP1;P1;durP2;ratioP2;P2;SDS_P1;SDS_P2;PMS_P1;PMS_P2;Temp;Humidity;BMP_temperature;BMP_pressure;BME280_temperature;BME280_humidity;BME280_pressure;Samples;Min_cycle;Max_cycle;Signal;HPM_P1;HPM_P2
2023/03/04 00:01:21;;;;;;;6.00;1.63;;;1.30;99.90;;;;;;5135620;27;20443;-78
2023/03/04 00:03:48;;;;;;;1.53;0.83;;;1.30;99.90;;;;;;5137413;27;20894;-78
2023/03/04 00:06:14;;;;;;;0.40;0.40;;;1.30;99.90;;;;;;5137285;27;20450;-78
2023/03/04 00:08:41;;;;;;;0.77;0.77;;;1.30;99.90;;;;;;5137222;27;20458;-78
2023/03/04 00:11:08;;;;;;;0.93;0.93;;;1.20;99.90;;;;;;5137235;27;20443;-78
2023/03/04 00:13:36;;;;;;;1.83;1.63;;;1.20;99.90;;;;;;5137198;27;20446;-78
2023/03/04 00:16:02;;;;;;;0.50;0.50;;;1.20;99.90;;;;;;5136755;27;21021;-78
2023/03/04 00:18:29;;;;;;;4.53;0.70;;;1.20;99.90;;;;;;5136999;27;20474;-78
2023/03/04 00:20:56;;;;;;;1.60;1.30;;;1.20;99.90;;;;;;5136750;27;20435;-78
2023/03/04 00:23:23;;;;;;;0.80;0.80;;;1.20;99.90;;;;;;5136703;27;20776;-78
2023/03/04 00:25:49;;;;;;;2.17;1.33;;;1.20;99.90;;;;;;5136665;27;20449;-78
2023/03/04 00:28:16;;;;;;;1.00;1.00;;;1.20;99.90;;;;;;5137669;27;20494;-78
2023/03/04 00:30:44;;;;;;;2.57;1.60;;;1.20;99.90;;;;;;5136535;27;20443;-78
2023/03/04 00:33:11;;;;;;;1.27;1.27;;;1.20;99.90;;;;;;5136835;27;20447;-78
2023/03/04 00:35:37;;;;;;;1.43;1.37;;;1.20;99.90;;;;;;5136190;27;20482;-78
2023/03/04 00:38:04;;;;;;;1.53;1.07;;;1.20;99.90;;;;;;5136298;27;20465;-78
2023/03/04 00:40:31;;;;;;;1.20;1.10;;;1.10;99.90;;;;;;5136599;27;20453;-78
2023/03/04 00:42:58;;;;;;;9.93;1.97;;;1.10;99.90;;;;;;5136617;27;20446;-78
2023/03/04 00:45:24;;;;;;;1.77;1.23;;;1.10;99.90;;;;;;5136561;27;20450;-79
2023/03/04 00:47:52;;;;;;;8.23;0.80;;;1.10;99.90;;;;;;5136192;27;20988;-78
2023/03/04 00:50:19;;;;;;;24.83;2.97;;;1.00;99.90;;;;;;5136474;27;20443;-78
2023/03/04 00:52:46;;;;;;;1.33;0.70;;;1.00;99.90;;;;;;5136395;27;20438;-78
2023/03/04 00:55:13;;;;;;;1.83;1.40;;;1.00;99.90;;;;;;5136369;27;20470;-78
2023/03/04 00:57:39;;;;;;;6.53;2.17;;;1.00;99.90;;;;;;5136183;27;20850;-78
2023/03/04 01:00:07;;;;;;;0.57;0.57;;;1.00;99.90;;;;;;5136315;27;20450;-78
2023/03/04 01:02:34;;;;;;;1.00;1.00;;;1.00;99.90;;;;;;5136212;27;20504;-78
2023/03/04 01:05:02;;;;;;;0.90;0.83;;;0.90;99.90;;;;;;5135875;27;20450;-78
2023/03/04 01:07:29;;;;;;;5.90;1.33;;;0.90;99.90;;;;;;5136075;27;20459;-78
2023/03/04 01:09:56;;;;;;;1.47;1.37;;;0.90;99.90;;;;;;5136096;27;20815;-78
2023/03/04 01:12:22;;;;;;;0.90;0.90;;;0.90;99.90;;;;;;5135887;27;20453;-78
2023/03/04 01:14:49;;;;;;;0.90;0.90;;;0.90;99.90;;;;;;5135980;27;20451;-78
2023/03/04 01:17:16;;;;;;;3.93;1.60;;;0.90;99.90;;;;;;5135716;27;20495;-78
2023/03/04 01:19:43;;;;;;;0.70;0.70;;;0.90;99.90;;;;;;5135920;27;20459;-78
2023/03/04 01:22:12;;;;;;;1.37;0.93;;;0.80;99.90;;;;;;5135809;27;20454;-78
2023/03/04 01:24:39;;;;;;;2.37;1.13;;;0.90;99.90;;;;;;5135735;27;20446;-78
2023/03/04 01:27:06;;;;;;;0.93;0.80;;;0.80;99.90;;;;;;5135674;27;20450;-78
2023/03/04 01:29:32;;;;;;;1.70;1.00;;;0.80;99.90;;;;;;5135423;27;20957;-78
2023/03/04 01:31:59;;;;;;;1.60;1.50;;;0.80;99.90;;;;;;5135632;27;20442;-78
2023/03/04 01:34:26;;;;;;;0.30;0.30;;;0.80;99.90;;;;;;5135587;27;20447;-78
2023/03/04 01:36:52;;;;;;;1.03;0.80;;;0.80;99.90;;;;;;5135021;27;20850;-78
2023/03/04 01:39:21;;;;;;;0.50;0.50;;;0.80;99.90;;;;;;5135496;27;20451;-78
2023/03/04 01:41:47;;;;;;;1.33;0.70;;;0.80;99.90;;;;;;5135143;27;20446;-78
2023/03/04 01:44:14;;;;;;;7.17;1.20;;;0.70;99.90;;;;;;5135371;27;20443;-78
2023/03/04 01:46:44;;;;;;;1.77;0.83;;;0.70;99.90;;;;;;5135344;27;20445;-78
2023/03/04 01:49:14;;;;;;;0.57;0.57;;;0.70;99.90;;;;;;5134941;27;20982;-78
2023/03/04 01:51:43;;;;;;;12.10;1.90;;;0.70;99.90;;;;;;5135513;27;20442;-78
2023/03/04 01:54:10;;;;;;;1.00;0.93;;;0.60;99.90;;;;;;5135235;27;20458;-78
2023/03/04 01:56:39;;;;;;;1.07;0.70;;;0.60;99.90;;;;;;5135082;27;20479;-78
2023/03/04 01:59:12;;;;;;;2.00;1.27;;;0.60;99.90;;;;;;5135049;27;20466;-78
2023/03/04 02:01:40;;;;;;;9.20;1.27;;;0.60;99.90;;;;;;5135073;27;20431;-78
2023/03/04 02:04:08;;;;;;;1.40;1.30;;;0.60;99.90;;;;;;5135006;27;20447;-78
2023/03/04 02:06:35;;;;;;;1.73;0.60;;;0.60;99.90;;;;;;5134673;27;20457;-78
2023/03/04 02:09:01;;;;;;;6.00;1.93;;;0.50;99.90;;;;;;5134890;27;20470;-78
2023/03/04 02:11:28;;;;;;;0.40;0.30;;;0.50;99.90;;;;;;5134684;27;20427;-78
2023/03/04 02:13:56;;;;;;;1.03;1.03;;;0.50;99.90;;;;;;5134883;27;20447;-78
2023/03/04 02:16:23;;;;;;;2.27;2.07;;;0.50;99.90;;;;;;5134761;27;20450;-78
2023/03/04 02:18:50;;;;;;;1.20;1.10;;;0.40;99.90;;;;;;5134755;27;20540;-78
2023/03/04 02:21:22;;;;;;;1.27;1.17;;;0.40;99.90;;;;;;5134730;27;20451;-78
2023/03/04 02:23:57;;;;;;;1.27;0.70;;;0.40;99.90;;;;;;5134276;27;20791;-78
2023/03/04 02:26:27;;;;;;;0.60;0.50;;;0.40;99.90;;;;;;5134713;27;20431;-78
2023/03/04 02:28:56;;;;;;;1.50;1.40;;;0.30;99.90;;;;;;5135695;27;20505;-78
2023/03/04 02:31:26;;;;;;;0.40;0.40;;;0.30;99.90;;;;;;5134595;27;20447;-78
2023/03/04 02:33:55;;;;;;;0.30;0.30;;;0.30;99.90;;;;;;5135155;27;20447;-78
2023/03/04 02:36:22;;;;;;;2.80;2.60;;;0.20;99.90;;;;;;5133897;27;20894;-79
2023/03/04 02:38:49;;;;;;;1.37;0.73;;;0.20;99.90;;;;;;5134504;27;20459;-78
2023/03/04 02:41:20;;;;;;;2.93;1.40;;;0.20;99.90;;;;;;5134493;27;20470;-78
2023/03/04 02:43:50;;;;;;;0.77;0.70;;;0.20;99.90;;;;;;5135496;27;20462;-78
2023/03/04 02:46:17;;;;;;;1.03;0.93;;;0.20;99.90;;;;;;5134710;27;20572;-78
2023/03/04 02:48:44;;;;;;;3.80;1.90;;;0.20;99.90;;;;;;5134046;27;20463;-78
2023/03/04 02:51:11;;;;;;;0.50;0.50;;;0.10;99.90;;;;;;5134417;27;20442;-78
2023/03/04 02:53:38;;;;;;;0.73;0.67;;;0.10;99.90;;;;;;5134392;27;20450;-78
2023/03/04 02:56:05;;;;;;;2.90;0.73;;;0.10;99.90;;;;;;5134105;27;20430;-78
2023/03/04 02:58:32;;;;;;;4.27;0.77;;;0.10;99.90;;;;;;5133822;27;20847;-79
2023/03/04 03:01:00;;;;;;;1.03;0.90;;;0.00;99.90;;;;;;5134250;27;20836;-78
2023/03/04 03:03:27;;;;;;;0.40;0.40;;;0.00;99.90;;;;;;5134281;27;20447;-79
2023/03/04 03:05:54;;;;;;;4.93;0.67;;;0.00;99.90;;;;;;5134224;27;20442;-79
2023/03/04 03:08:21;;;;;;;1.33;0.93;;;0.00;99.90;;;;;;5134121;27;20470;-78
2023/03/04 03:10:47;;;;;;;2.00;0.50;;;0.00;99.90;;;;;;5134206;27;20451;-79
2023/03/04 03:13:14;;;;;;;1.00;0.93;;;0.00;99.90;;;;;;5134203;27;20447;-78
2023/03/04 03:15:41;;;;;;;1.17;1.10;;;-0.10;99.90;;;;;;5133989;27;20875;-79
2023/03/04 03:18:09;;;;;;;2.43;0.77;;;-0.10;99.90;;;;;;5133691;27;20482;-79
2023/03/04 03:20:37;;;;;;;0.67;0.67;;;-0.10;99.90;;;;;;5133794;27;20479;-79
2023/03/04 03:23:04;;;;;;;3.70;0.57;;;-0.10;99.90;;;;;;5134069;27;20446;-79
2023/03/04 03:25:31;;;;;;;0.43;0.40;;;-0.10;99.90;;;;;;5134096;27;20447;-79
2023/03/04 03:27:57;;;;;;;0.90;0.90;;;-0.10;99.90;;;;;;5133993;27;20486;-79
2023/03/04 03:30:24;;;;;;;0.40;0.40;;;-0.20;99.90;;;;;;5134041;27;20454;-79
2023/03/04 03:32:51;;;;;;;0.40;0.30;;;-0.20;99.90;;;;;;5133669;27;20961;-79
2023/03/04 03:35:19;;;;;;;0.50;0.50;;;-0.20;99.90;;;;;;5134124;27;20442;-77
2023/03/04 03:37:47;;;;;;;0.77;0.77;;;-0.20;99.90;;;;;;5137798;27;20486;-77
2023/03/04 03:40:14;;;;;;;1.90;1.57;;;-0.20;99.90;;;;;;5137517;27;20896;-77
2023/03/04 03:42:41;;;;;;;0.50;0.50;;;-0.20;99.90;;;;;;5137811;27;20826;-77
2023/03/04 03:45:09;;;;;;;2.73;1.23;;;-0.20;99.90;;;;;;5137741;27;20446;-77
2023/03/04 03:47:36;;;;;;;0.50;0.50;;;-0.20;99.90;;;;;;5137353;27;20984;-77
2023/03/04 03:50:03;;;;;;;0.57;0.47;;;-0.20;99.90;;;;;;5137607;27;20454;-77
2023/03/04 03:52:31;;;;;;;0.50;0.50;;;-0.20;99.90;;;;;;5137535;27;20446;-77
2023/03/04 03:55:00;;;;;;;0.87;0.87;;;-0.20;99.90;;;;;;5137508;27;20451;-77
2023/03/04 03:57:27;;;;;;;1.73;0.90;;;-0.20;99.90;;;;;;5137310;27;20486;-77
2023/03/04 03:59:54;;;;;;;1.00;1.00;;;-0.30;99.90;;;;;;5137479;27;20788;-77
2023/03/04 04:02:21;;;;;;;0.50;0.50;;;-0.30;99.90;;;;;;5137337;27;20442;-77
2023/03/04 04:04:48;;;;;;;1.03;0.50;;;-0.30;99.90;;;;;;5137297;27;20448;-77
2023/03/04 04:07:14;;;;;;;3.33;1.03;;;-0.30;99.90;;;;;;5137238;27;20470;-77
2023/03/04 04:09:42;;;;;;;0.30;0.27;;;-0.30;99.90;;;;;;5136923;27;20942;-77
2023/03/04 04:12:09;;;;;;;3.50;0.60;;;-0.30;99.90;;;;;;5137217;27;20450;-77
2023/03/04 04:14:36;;;;;;;0.57;0.57;;;-0.40;99.90;;;;;;5137155;27;20880;-77
2023/03/04 04:17:03;;;;;;;2.30;1.17;;;-0.40;99.90;;;;;;5136959;27;20455;-77
2023/03/04 04:19:29;;;;;;;0.30;0.30;;;-0.40;99.90;;;;;;5136777;27;20443;-77
2023/03/04 04:21:56;;;;;;;1.03;0.93;;;-0.40;99.90;;;;;;5136999;27;20458;-78
2023/03/04 04:24:23;;;;;;;0.47;0.47;;;-0.40;99.90;;;;;;5137810;27;20445;-79
2023/03/04 04:26:51;;;;;;;0.50;0.50;;;-0.50;99.90;;;;;;5136836;27;20446;-79
2023/03/04 04:29:18;;;;;;;1.13;1.00;;;-0.40;99.90;;;;;;5136913;27;20570;-79
2023/03/04 04:31:45;;;;;;;1.77;1.67;;;-0.50;99.90;;;;;;5136889;27;20460;-79
2023/03/04 04:34:12;;;;;;;1.43;1.17;;;-0.50;99.90;;;;;;5136832;27;20447;-79
2023/03/04 04:36:38;;;;;;;0.40;0.40;;;-0.40;99.90;;;;;;5136366;27;20474;-79
2023/03/04 04:39:05;;;;;;;2.10;0.50;;;-0.50;99.90;;;;;;5136265;27;20833;-79
2023/03/04 04:41:38;;;;;;;0.70;0.53;;;-0.50;99.90;;;;;;5136681;27;20451;-79
2023/03/04 04:44:06;;;;;;;5.50;1.20;;;-0.50;99.90;;;;;;5136345;27;20937;-79
2023/03/04 04:46:33;;;;;;;0.67;0.50;;;-0.50;99.90;;;;;;5135744;27;20985;-79
2023/03/04 04:49:00;;;;;;;2.73;0.97;;;-0.50;99.90;;;;;;5136416;27;20462;-79
2023/03/04 04:51:27;;;;;;;0.40;0.40;;;-0.60;99.90;;;;;;5136196;27;20446;-79
2023/03/04 04:53:54;;;;;;;0.63;0.63;;;-0.60;99.90;;;;;;5136170;27;20431;-79
2023/03/04 04:56:23;;;;;;;0.40;0.40;;;-0.50;99.90;;;;;;5136051;27;20451;-79
2023/03/04 04:58:50;;;;;;;1.33;0.83;;;-0.50;99.90;;;;;;5136188;27;20487;-79
2023/03/04 05:01:18;;;;;;;0.63;0.63;;;-0.50;99.90;;;;;;5136272;27;20443;-79
2023/03/04 05:03:45;;;;;;;0.50;0.50;;;-0.50;99.90;;;;;;5136250;27;20422;-79
2023/03/04 05:06:14;;;;;;;0.67;0.67;;;-0.50;99.90;;;;;;5136145;27;20451;-79
2023/03/04 05:08:41;;;;;;;0.57;0.57;;;-0.50;99.90;;;;;;5136060;27;20463;-79
2023/03/04 05:11:08;;;;;;;0.90;0.60;;;-0.50;99.90;;;;;;5136086;27;20454;-79
2023/03/04 05:13:35;;;;;;;0.30;0.30;;;-0.60;99.90;;;;;;5136052;27;20447;-79
2023/03/04 05:16:02;;;;;;;0.43;0.43;;;-0.60;99.90;;;;;;5135949;27;20453;-79
2023/03/04 05:18:30;;;;;;;0.37;0.33;;;-0.60;99.90;;;;;;5135846;27;20556;-79
2023/03/04 05:20:59;;;;;;;0.50;0.50;;;-0.70;99.90;;;;;;5136739;27;20446;-79
2023/03/04 05:23:28;;;;;;;0.87;0.60;;;-0.70;99.90;;;;;;5135528;27;20454;-78
2023/03/04 05:25:54;;;;;;;0.50;0.50;;;-0.70;99.90;;;;;;5135824;27;20442;-79
2023/03/04 05:28:22;;;;;;;0.70;0.40;;;-0.70;99.90;;;;;;5135704;27;20465;-79
2023/03/04 05:30:49;;;;;;;0.40;0.40;;;-0.80;99.90;;;;;;5135677;27;20446;-79
2023/03/04 05:33:17;;;;;;;0.77;0.67;;;-0.80;99.90;;;;;;5135325;27;20941;-79
2023/03/04 05:35:47;;;;;;;0.47;0.47;;;-0.80;99.90;;;;;;5135820;27;20479;-79
2023/03/04 05:38:16;;;;;;;0.63;0.63;;;-0.80;99.90;;;;;;5135688;27;20478;-79
2023/03/04 05:40:43;;;;;;;0.30;0.30;;;-0.80;99.90;;;;;;5135535;27;20443;-79
2023/03/04 05:43:10;;;;;;;0.30;0.27;;;-0.80;99.90;;;;;;5135177;27;20935;-79
2023/03/04 05:45:37;;;;;;;1.63;0.47;;;-0.80;99.90;;;;;;5135074;27;20443;-79
2023/03/04 05:48:04;;;;;;;1.07;1.07;;;-0.90;99.90;;;;;;5135326;27;20521;-79
2023/03/04 05:50:31;;;;;;;2.00;0.70;;;-0.90;99.90;;;;;;5135281;27;20446;-79
2023/03/04 05:53:00;;;;;;;0.70;0.70;;;-0.90;99.90;;;;;;5135250;27;20452;-79
2023/03/04 05:55:28;;;;;;;5.00;1.10;;;-1.00;99.90;;;;;;5135231;27;20808;-79
2023/03/04 05:57:55;;;;;;;0.60;0.60;;;-1.00;99.90;;;;;;5134221;27;20486;-79
2023/03/04 06:00:22;;;;;;;0.50;0.50;;;-1.00;99.90;;;;;;5135156;27;20443;-79
2023/03/04 06:02:49;;;;;;;0.63;0.63;;;-1.00;99.90;;;;;;5134727;27;20933;-79
2023/03/04 06:05:16;;;;;;;0.30;0.20;;;-1.00;99.90;;;;;;5135051;27;20446;-79
2023/03/04 06:07:43;;;;;;;0.43;0.43;;;-1.10;99.90;;;;;;5134902;27;20489;-79
2023/03/04 06:10:14;;;;;;;2.10;2.00;;;-1.00;99.90;;;;;;5134602;27;20456;-79
2023/03/04 06:12:41;;;;;;;0.77;0.70;;;-1.00;99.90;;;;;;5134935;27;20427;-79
2023/03/04 06:15:09;;;;;;;0.30;0.30;;;-1.00;99.90;;;;;;5134556;27;20957;-79
2023/03/04 06:17:36;;;;;;;0.33;0.33;;;-1.00;99.90;;;;;;5134694;27;20470;-78
2023/03/04 06:20:04;;;;;;;0.30;0.30;;;-1.00;99.90;;;;;;5134497;27;20965;-79
2023/03/04 06:22:31;;;;;;;0.50;0.50;;;-0.90;99.90;;;;;;5134747;27;20450;-79
2023/03/04 06:24:58;;;;;;;0.40;0.40;;;-0.90;99.90;;;;;;5134687;27;20453;-79
2023/03/04 06:27:26;;;;;;;2.27;0.50;;;-0.80;99.90;;;;;;5134611;27;20462;-79
2023/03/04 06:29:53;;;;;;;0.30;0.30;;;-0.70;99.90;;;;;;5134313;27;20842;-79
2023/03/04 06:32:20;;;;;;;0.40;0.40;;;-0.70;99.90;;;;;;5134642;27;20482;-78
2023/03/04 06:34:47;;;;;;;0.60;0.50;;;-0.70;99.90;;;;;;5134574;27;20454;-78
2023/03/04 06:37:13;;;;;;;0.40;0.30;;;-0.70;99.90;;;;;;5134005;27;21012;-77
2023/03/04 06:39:40;;;;;;;0.70;0.50;;;-0.60;99.90;;;;;;5134475;27;20474;-77
2023/03/04 06:42:07;;;;;;;0.40;0.40;;;-0.50;99.90;;;;;;5134466;27;20457;-77
2023/03/04 06:44:35;;;;;;;1.63;1.53;;;-0.40;99.90;;;;;;5134447;27;20439;-77
2023/03/04 06:47:02;;;;;;;2.20;0.50;;;-0.40;99.90;;;;;;5134353;27;20451;-77
2023/03/04 06:49:29;;;;;;;0.63;0.40;;;-0.30;99.90;;;;;;5134042;27;20447;-77
2023/03/04 06:51:55;;;;;;;0.40;0.40;;;-0.20;99.90;;;;;;5134348;27;20447;-77
2023/03/04 06:54:23;;;;;;;0.93;0.70;;;-0.20;99.90;;;;;;5134321;27;20453;-77
2023/03/04 06:56:50;;;;;;;0.30;0.30;;;-0.10;99.90;;;;;;5134244;27;20449;-77
2023/03/04 06:59:16;;;;;;;2.13;2.03;;;0.00;99.90;;;;;;5133853;27;21019;-77
2023/03/04 07:01:44;;;;;;;1.07;0.70;;;0.00;99.90;;;;;;5134265;27;20439;-77
2023/03/04 07:04:13;;;;;;;0.53;0.53;;;0.10;99.90;;;;;;5134265;27;20443;-77
2023/03/04 07:06:40;;;;;;;0.90;0.60;;;0.20;99.90;;;;;;5134223;27;20527;-77
2023/03/04 07:09:07;;;;;;;0.57;0.50;;;0.30;99.90;;;;;;5134591;27;20459;-77
2023/03/04 07:11:34;;;;;;;1.53;1.17;;;0.30;99.90;;;;;;5138417;27;20450;-77
2023/03/04 07:14:00;;;;;;;0.77;0.77;;;0.50;99.90;;;;;;5138381;27;20450;-77
2023/03/04 07:16:27;;;;;;;1.53;0.70;;;0.60;99.90;;;;;;5138317;27;20918;-77
2023/03/04 07:18:55;;;;;;;0.30;0.30;;;0.60;99.90;;;;;;5138177;27;20509;-77
2023/03/04 07:21:22;;;;;;;0.73;0.73;;;0.80;99.90;;;;;;5138227;27;20443;-79
2023/03/04 07:23:49;;;;;;;0.50;0.50;;;1.00;99.90;;;;;;5138172;27;20450;-78
2023/03/04 07:26:16;;;;;;;0.60;0.60;;;1.10;99.90;;;;;;5137837;27;20946;-78
2023/03/04 07:28:43;;;;;;;2.40;0.90;;;1.20;99.90;;;;;;5137743;27;20989;-78
2023/03/04 07:31:12;;;;;;;0.67;0.67;;;1.40;99.90;;;;;;5138061;27;20423;-78
2023/03/04 07:33:39;;;;;;;0.40;0.40;;;1.40;99.90;;;;;;5138043;27;20408;-78
2023/03/04 07:36:07;;;;;;;1.67;0.73;;;1.50;99.90;;;;;;5137632;27;20486;-78
2023/03/04 07:38:34;;;;;;;1.43;0.60;;;1.50;99.90;;;;;;5137731;27;20497;-78
2023/03/04 07:41:01;;;;;;;0.43;0.40;;;1.50;99.90;;;;;;5138436;27;20445;-78
2023/03/04 07:43:28;;;;;;;0.40;0.40;;;1.50;99.90;;;;;;5137756;27;20453;-77
2023/03/04 07:45:59;;;;;;;0.57;0.50;;;1.40;99.90;;;;;;5137740;27;20454;-78
2023/03/04 07:48:26;;;;;;;1.53;1.13;;;1.50;99.90;;;;;;5137337;27;20458;-78
2023/03/04 07:51:04;;;;;;;0.40;0.30;;;1.40;99.90;;;;;;5137672;27;20446;-78
2023/03/04 07:53:32;;;;;;;1.27;1.27;;;1.50;99.90;;;;;;5137634;27;20430;-78
2023/03/04 07:55:58;;;;;;;3.03;2.33;;;1.50;99.90;;;;;;5137284;27;20533;-78
2023/03/04 07:58:26;;;;;;;3.77;1.00;;;1.50;99.90;;;;;;5137410;27;20489;-78
2023/03/04 08:00:52;;;;;;;8.93;1.27;;;1.50;99.90;;;;;;5137510;27;20443;-78
2023/03/04 08:03:19;;;;;;;1.17;0.40;;;1.50;99.90;;;;;;5137124;27;20912;-78
2023/03/04 08:05:46;;;;;;;6.00;1.10;;;1.50;99.90;;;;;;5137402;27;20449;-78
2023/03/04 08:08:12;;;;;;;6.13;1.83;;;1.60;99.90;;;;;;5137239;27;20465;-78
2023/03/04 08:10:41;;;;;;;1.10;1.00;;;1.70;99.90;;;;;;5137292;27;20446;-78
2023/03/04 08:13:08;;;;;;;3.03;2.60;;;1.60;99.90;;;;;;5137248;27;20823;-78
2023/03/04 08:15:39;;;;;;;1.47;0.63;;;1.60;99.90;;;;;;5137190;27;20446;-78
2023/03/04 08:18:05;;;;;;;0.80;0.80;;;1.50;99.90;;;;;;5136715;27;20835;-78
2023/03/04 08:20:32;;;;;;;1.43;1.37;;;1.50;99.90;;;;;;5136755;27;20446;-78
2023/03/04 08:22:59;;;;;;;0.47;0.43;;;1.50;99.90;;;;;;5136577;27;20449;-78
2023/03/04 08:25:25;;;;;;;1.47;1.37;;;1.50;99.90;;;;;;5136995;27;20815;-78
2023/03/04 08:27:53;;;;;;;0.37;0.33;;;1.50;99.90;;;;;;5136879;27;20463;-78
2023/03/04 08:30:20;;;;;;;0.43;0.43;;;1.60;99.90;;;;;;5136870;27;20439;-78
2023/03/04 08:32:47;;;;;;;0.30;0.30;;;1.60;99.90;;;;;;5136858;27;20524;-77
2023/03/04 08:35:14;;;;;;;1.43;0.60;;;1.60;99.90;;;;;;5136516;27;20455;-78
2023/03/04 08:37:41;;;;;;;0.43;0.43;;;1.70;99.90;;;;;;5136690;27;20467;-78
2023/03/04 08:40:09;;;;;;;3.87;0.90;;;1.70;99.90;;;;;;5136269;27;21016;-78
2023/03/04 08:42:35;;;;;;;1.13;1.10;;;1.80;99.90;;;;;;5136326;27;20961;-78
2023/03/04 08:45:04;;;;;;;0.70;0.63;;;1.90;99.90;;;;;;5136628;27;20426;-78
2023/03/04 08:47:31;;;;;;;0.50;0.50;;;1.90;99.90;;;;;;5136460;27;20470;-78
2023/03/04 08:49:58;;;;;;;0.30;0.30;;;2.00;99.90;;;;;;5136192;27;20958;-78
2023/03/04 08:52:25;;;;;;;0.47;0.47;;;2.00;99.90;;;;;;5136164;27;20447;-77
2023/03/04 08:54:52;;;;;;;0.40;0.37;;;1.90;99.90;;;;;;5136459;27;20805;-78
2023/03/04 08:57:19;;;;;;;0.57;0.47;;;1.90;99.90;;;;;;5136318;27;20466;-78
2023/03/04 08:59:45;;;;;;;0.67;0.67;;;1.90;99.90;;;;;;5136276;27;20478;-78
2023/03/04 09:02:13;;;;;;;1.53;1.13;;;1.90;99.90;;;;;;5136311;27;20447;-78
2023/03/04 09:04:40;;;;;;;0.63;0.63;;;1.90;99.90;;;;;;5135946;27;20940;-78
2023/03/04 09:07:08;;;;;;;0.83;0.83;;;2.00;99.90;;;;;;5136135;27;20446;-78
2023/03/04 09:09:35;;;;;;;1.00;0.73;;;2.00;99.90;;;;;;5136177;27;20443;-78
2023/03/04 09:12:02;;;;;;;0.80;0.80;;;2.10;99.90;;;;;;5136073;27;20450;-78
2023/03/04 09:14:28;;;;;;;0.40;0.30;;;2.00;99.90;;;;;;5135747;27;20968;-78
2023/03/04 09:16:55;;;;;;;1.37;1.27;;;2.10;99.90;;;;;;5135942;27;20446;-78
2023/03/04 09:19:23;;;;;;;0.40;0.40;;;2.10;99.90;;;;;;5136450;27;20478;-77
2023/03/04 09:21:50;;;;;;;0.77;0.77;;;2.10;99.90;;;;;;5135619;27;20474;-78
2023/03/04 09:24:17;;;;;;;2.10;0.90;;;2.10;99.90;;;;;;5135866;27;20458;-78
2023/03/04 09:26:44;;;;;;;1.20;1.20;;;2.20;99.90;;;;;;5135530;27;20442;-78
2023/03/04 09:29:11;;;;;;;1.43;1.07;;;2.20;99.90;;;;;;5135599;27;20466;-78
2023/03/04 09:31:38;;;;;;;0.60;0.60;;;2.30;99.90;;;;;;5135392;27;20439;-78
2023/03/04 09:34:05;;;;;;;0.63;0.63;;;2.30;99.90;;;;;;5135663;27;20454;-78
2023/03/04 09:36:33;;;;;;;4.23;1.43;;;2.20;99.90;;;;;;5135216;27;20473;-78
2023/03/04 09:39:01;;;;;;;2.83;0.50;;;2.30;99.90;;;;;;5135438;27;20485;-78
2023/03/04 09:41:36;;;;;;;0.97;0.47;;;2.30;99.90;;;;;;5135496;27;20472;-78
2023/03/04 09:44:06;;;;;;;0.60;0.60;;;2.40;99.90;;;;;;5135199;27;20437;-79
2023/03/04 09:46:37;;;;;;;1.50;1.23;;;2.40;99.90;;;;;;5135444;27;20434;-78
2023/03/04 09:49:04;;;;;;;18.83;1.63;;;2.30;99.90;;;;;;5135320;27;20482;-78
2023/03/04 09:51:46;;;;;;;3.77;1.33;;;2.40;99.90;;;;;;5135294;27;20450;-78
2023/03/04 09:54:24;;;;;;;0.30;0.20;;;2.50;99.90;;;;;;5135021;27;20929;-78
2023/03/04 09:56:57;;;;;;;1.20;1.13;;;2.60;99.90;;;;;;5135171;27;20439;-78
2023/03/04 09:59:28;;;;;;;1.17;0.40;;;2.70;99.90;;;;;;5134851;27;20458;-78
2023/03/04 10:01:56;;;;;;;0.40;0.40;;;3.00;99.90;;;;;;5134848;27;20439;-78
2023/03/04 10:04:32;;;;;;;1.50;1.40;;;3.20;99.90;;;;;;5134721;27;20446;-78
2023/03/04 10:07:01;;;;;;;1.27;0.83;;;3.50;99.90;;;;;;5135034;27;20427;-78
2023/03/04 10:09:32;;;;;;;1.70;1.60;;;3.60;99.90;;;;;;5134646;27;20439;-79
2023/03/04 10:12:02;;;;;;;1.07;0.97;;;3.70;99.90;;;;;;5134971;27;20461;-79
2023/03/04 10:14:37;;;;;;;2.67;1.40;;;3.80;99.90;;;;;;5135226;27;20483;-78
2023/03/04 10:17:12;;;;;;;5.87;1.80;;;3.90;99.90;;;;;;5134815;27;20442;-79
2023/03/04 10:19:52;;;;;;;0.97;0.70;;;3.90;99.90;;;;;;5134796;27;20462;-79
2023/03/04 10:22:27;;;;;;;2.23;0.83;;;3.90;99.90;;;;;;5134485;27;20914;-79
2023/03/04 10:24:57;;;;;;;0.60;0.60;;;3.80;99.90;;;;;;5134786;27;20426;-79
2023/03/04 10:27:24;;;;;;;0.73;0.50;;;3.70;99.90;;;;;;5134694;27;20486;-79
2023/03/04 10:29:51;;;;;;;0.60;0.60;;;3.90;99.90;;;;;;5134695;27;20443;-79
2023/03/04 10:32:20;;;;;;;10.73;1.00;;;4.00;99.90;;;;;;5134332;27;20829;-79
2023/03/04 10:34:47;;;;;;;0.77;0.77;;;4.10;99.90;;;;;;5134622;27;20451;-79
2023/03/04 10:37:14;;;;;;;2.87;1.33;;;4.20;99.90;;;;;;5134043;27;20486;-79
2023/03/04 10:39:44;;;;;;;2.80;1.63;;;4.30;99.90;;;;;;5135027;27;20482;-79
2023/03/04 10:42:26;;;;;;;3.53;1.27;;;4.40;99.90;;;;;;5134230;27;20439;-79
2023/03/04 10:44:54;;;;;;;2.70;1.20;;;4.50;99.90;;;;;;5133789;27;20898;-79
2023/03/04 10:47:23;;;;;;;3.20;0.83;;;4.60;99.90;;;;;;5134400;27;20871;-79
2023/03/04 10:49:52;;;;;;;3.07;0.60;;;4.70;99.90;;;;;;5134443;27;20439;-78
2023/03/04 10:52:28;;;;;;;0.63;0.63;;;4.80;99.90;;;;;;5134450;27;20800;-79
2023/03/04 10:54:58;;;;;;;12.27;3.17;;;4.90;99.90;;;;;;5134428;27;20435;-79
2023/03/04 10:57:32;;;;;;;7.53;2.10;;;5.00;99.90;;;;;;5134321;27;20471;-79
2023/03/04 11:00:00;;;;;;;5.50;1.67;;;5.00;99.90;;;;;;5134342;27;20851;-79
2023/03/04 11:02:30;;;;;;;1.53;1.43;;;5.00;99.90;;;;;;5134337;27;20446;-79
2023/03/04 11:05:16;;;;;;;4.53;2.77;;;5.10;99.90;;;;;;5133992;27;20937;-79
2023/03/04 11:07:45;;;;;;;1.10;1.00;;;5.20;99.90;;;;;;5134264;27;20467;-79
2023/03/04 11:10:17;;;;;;;0.60;0.47;;;5.20;99.90;;;;;;5134287;27;20449;-79
2023/03/04 11:12:49;;;;;;;5.43;1.00;;;5.10;99.90;;;;;;5134233;27;20431;-79
2023/03/04 11:15:23;;;;;;;11.73;1.77;;;5.10;99.90;;;;;;5134236;27;20431;-79
2023/03/04 11:17:54;;;;;;;0.60;0.47;;;5.20;99.90;;;;;;5134122;27;20469;-79
2023/03/04 11:20:31;;;;;;;4.77;1.40;;;5.40;99.90;;;;;;5134162;27;20467;-79
2023/03/04 11:23:03;;;;;;;7.40;2.50;;;5.60;99.90;;;;;;5134168;27;20433;-78
2023/03/04 11:25:34;;;;;;;3.80;1.10;;;5.70;99.90;;;;;;5133878;27;20431;-79
2023/03/04 11:28:05;;;;;;;1.73;0.77;;;5.80;99.90;;;;;;5133796;27;20471;-79
2023/03/04 11:30:38;;;;;;;2.53;0.90;;;5.90;99.90;;;;;;5134040;27;20520;-79
2023/03/04 11:33:22;;;;;;;1.73;1.60;;;6.10;99.90;;;;;;5134008;27;20427;-79
2023/03/04 11:35:58;;;;;;;3.43;1.37;;;6.20;99.90;;;;;;5133654;27;20489;-79
2023/03/04 11:38:31;;;;;;;5.33;2.40;;;6.20;99.90;;;;;;5133907;27;20500;-79
2023/03/04 11:41:03;;;;;;;2.40;1.17;;;6.30;99.90;;;;;;5133896;27;20474;-79
2023/03/04 11:43:35;;;;;;;3.77;1.20;;;6.50;99.90;;;;;;5133933;27;20434;-79
2023/03/04 11:46:24;;;;;;;5.10;2.07;;;6.60;99.90;;;;;;5133586;27;20911;-79
2023/03/04 11:49:00;;;;;;;0.50;0.50;;;6.60;99.90;;;;;;5131703;27;20477;-78
2023/03/04 11:51:36;;;;;;;4.13;1.10;;;6.60;99.90;;;;;;5133527;27;20481;-79
2023/03/04 11:54:17;;;;;;;14.37;2.97;;;6.60;99.90;;;;;;5133874;27;20426;-79
2023/03/04 11:56:49;;;;;;;2.73;1.20;;;6.60;99.90;;;;;;5134824;27;20797;-79
2023/03/04 11:59:43;;;;;;;6.03;1.53;;;6.60;99.90;;;;;;5137484;27;20431;-79
2023/03/04 12:02:19;;;;;;;3.33;0.93;;;6.50;99.90;;;;;;5137497;27;20435;-79
2023/03/04 12:05:19;;;;;;;1.47;1.23;;;6.30;99.90;;;;;;5137505;27;20449;-79
2023/03/04 12:08:03;;;;;;;3.93;1.83;;;6.30;99.90;;;;;;5137246;27;20466;-79
2023/03/04 12:10:38;;;;;;;3.70;2.07;;;6.40;99.90;;;;;;5137421;27;20426;-79
2023/03/04 12:13:42;;;;;;;3.90;0.90;;;6.40;99.90;;;;;;5136948;27;20906;-79
2023/03/04 12:16:23;;;;;;;2.30;1.37;;;6.40;99.90;;;;;;5137225;27;20431;-79
2023/03/04 12:19:08;;;;;;;5.00;1.70;;;6.50;99.90;;;;;;5137126;27;20462;-80
2023/03/04 12:21:59;;;;;;;6.47;1.63;;;6.50;99.90;;;;;;5137067;27;20458;-79
2023/03/04 12:24:40;;;;;;;8.73;2.43;;;6.40;99.90;;;;;;5137922;27;20442;-80
2023/03/04 12:27:17;;;;;;;3.13;1.20;;;6.40;99.90;;;;;;5136969;27;20433;-80
2023/03/04 12:29:53;;;;;;;2.67;0.97;;;6.30;99.90;;;;;;5137005;27;20422;-80
2023/03/04 12:32:29;;;;;;;15.00;1.73;;;6.30;99.90;;;;;;5136945;27;20427;-79
2023/03/04 12:35:14;;;;;;;1.30;0.83;;;6.30;99.90;;;;;;5136943;27;20431;-79
2023/03/04 12:38:00;;;;;;;11.13;2.13;;;6.40;99.90;;;;;;5136825;27;20454;-79
2023/03/04 12:40:41;;;;;;;1.77;1.50;;;6.30;99.90;;;;;;5136750;27;20466;-80
2023/03/04 12:43:31;;;;;;;8.60;1.70;;;6.30;99.90;;;;;;5136516;27;20411;-79
2023/03/04 12:46:08;;;;;;;0.90;0.80;;;6.20;99.90;;;;;;5126135;27;20964;-80
2023/03/04 12:48:39;;;;;;;3.47;1.63;;;6.30;99.90;;;;;;5136598;27;20465;-79
2023/03/04 12:51:18;;;;;;;4.47;1.03;;;6.40;99.90;;;;;;5136592;27;20427;-79
2023/03/04 12:53:56;;;;;;;2.60;1.10;;;6.40;99.90;;;;;;5136207;27;20796;-79
2023/03/04 12:56:28;;;;;;;2.00;1.63;;;6.50;99.90;;;;;;5136203;27;20430;-79
2023/03/04 12:58:56;;;;;;;4.73;1.57;;;6.30;99.90;;;;;;5136372;27;20451;-79
2023/03/04 13:01:29;;;;;;;5.70;1.57;;;6.30;99.90;;;;;;5136063;27;20836;-79
2023/03/04 13:04:02;;;;;;;1.47;0.93;;;6.20;99.90;;;;;;5136331;27;20442;-79